Indianola, IL

9:33 PM CST on March 05, 2015 (GMT -0600)
Univ Of Illinois-Willard | Change Station
CLOSE
Current Station
Airport
Location: Champaign,
Elevation: 755 ft
Nearby Weather Stations

Elev 755 ft 40.04 °N, 88.28 °W | Updated 40 minutes ago

Partly Cloudy
Partly Cloudy
-1 °F
Feels Like -1 °F
N
0
Wind Variable Wind from North

Today
High -- | Low -- °F
--% Chance of Precip.
Yesterday
High -- | Low -- °F
Precip. -- in
6:18 AM 5:47 PM
Full, 100% visible
Pressure 30.63 in
Visibility 10.0 miles
Clouds Clear
Dew Point -6 °F
Humidity 79%
Rainfall 0.00 in
Snow Depth Not available.
UV 0 out of 12
Pollen .50 out of 12
Air Quality Not available.
Flu Activity Not available.
METAR KCMI 060253Z 00000KT 10SM CLR M18/M21 A3057 RMK AO2 SLP371 T11831211 50009

More Conditions Fewer Conditions

Pressure 30.63 in
Visibility 10.0 miles
Clouds Clear
Dew Point -6 °F
Humidity 79%
Rainfall 0.00 in
Snow Depth Not available.
UV 0 out of 12
Pollen .50 out of 12
Air Quality Not available.
Flu Activity Not available.
METAR KCMI 060253Z 00000KT 10SM CLR M18/M21 A3057 RMK AO2 SLP371 T11831211 50009

More Conditions Fewer Conditions

10-Day Weather Forecast

Almanac

Astronomy

Mar. 05, 2015 Rise Set
Actual Time
Civil Twilight
Nautical Twilight
Astronomical Twilight
Moon
Length of Visible Light
Length of Day
Tomorrow will be .
, % of the Moon is Illuminated

Today's Extremes

State Highs State Lows

Community

WunderPhotos

Upload Photos

1,803,166 photos uploaded!

WunderBlogs® & News

Nearby

Air Quality

  Air Quality AQ Index Pollutant
Not available.

Snow Depth

Station Depth Elevation

Earthquake Activity

City Distance Mag. Time & Date
Minimum magnitude displayed is 2.5.

Coastal Water Temperatures

Place Temperature

Nearby Weather Stations